Warnock, OH

12:16 AM EST on March 05, 2015 (GMT -0500)
Pittsburgh International | Change Station
CLOSE
Current Station
Airport
Location: Pittsburgh,
Elevation: 1201 ft
Nearby Weather Stations

Elev 1201 ft 40.48 °N, 80.21 °W | Updated 25 minutes ago

Snow
Snow
28 °F
Feels Like 18 °F
N
12
Wind Variable Wind from WNW

Today
High -- | Low -- °F
--% Chance of Precip.
Yesterday
High -- | Low -- °F
Precip. -- in
6:51 AM 6:19 PM
Full, 100% visible
Pressure 30.11 in
Visibility 1.0 miles
Clouds
Windchill 18 °F
Dew Point 26 °F
Humidity 92%
Rainfall 0.64 in
Snow Depth Not available.
UV Not available.
Pollen .60 out of 12
Air Quality Not available.
Flu Activity Not available.
METAR KPIT 050451Z 30010KT 1SM R28R/P6000FT -SN VV011 M02/M03 A3005 RMK AO2 SLP196 P0002 T10221033 400671022

More Conditions Fewer Conditions

Pressure 30.11 in
Visibility 1.0 miles
Clouds
Windchill 18 °F
Dew Point 26 °F
Humidity 92%
Rainfall 0.64 in
Snow Depth Not available.
UV Not available.
Pollen .60 out of 12
Air Quality Not available.
Flu Activity Not available.
METAR KPIT 050451Z 30010KT 1SM R28R/P6000FT -SN VV011 M02/M03 A3005 RMK AO2 SLP196 P0002 T10221033 400671022

More Conditions Fewer Conditions

10-Day Weather Forecast

Almanac

Astronomy

Mar. 05, 2015 Rise Set
Actual Time
Civil Twilight
Nautical Twilight
Astronomical Twilight
Moon
Length of Visible Light
Length of Day
Tomorrow will be .
, % of the Moon is Illuminated

Today's Extremes

State Highs State Lows

Community

WunderPhotos

Upload Photos

1,802,686 photos uploaded!

WunderBlogs® & News

Nearby

Air Quality

  Air Quality AQ Index Pollutant
Not available.

Snow Depth

Station Depth Elevation

Earthquake Activity

City Distance Mag. Time & Date
Minimum magnitude displayed is 2.5.

Coastal Water Temperatures

Place Temperature

Nearby Weather Stations

Winter Weather Advisory
Statement as of 9:34 PM EST on March 04, 2015

... Winter Weather Advisory remains in effect until 4 PM EST
Thursday...

* snow accumulations... 3 to 6 inches.

* Period of most intense snow... through Thursday morning.

* Snow ending... Thursday afternoon.

* Impacts... hazardous travel conditions are expected due to snow
accumulation.

Precautionary/preparedness actions...

A Winter Weather Advisory for snow means that snowfall will cause
travel difficulties. Report snow accumulation to the National
Weather Service by calling 412-262-1988... posting to the NWS
Pittsburgh facebook Page... or using twitter @nwspittsburgh.



07